Vanquish — PHCU — position and weather

sailwx.info

Track history (hours):
 
Tides and Currents Weather Stations Pressure Air Temp Water Temp Dewpoint Dewpoint Depression Visibility Wind Speed Wind Dir Waves Ship Positions

Vanquish

Last reported at 2015-Jan-31 12:28 UTC. Time now 2015-Jan-31 13:11 UTC.
Position N 52°21' W 005°32'.

MMSI: 246138952.

Date/timePositionNaut miles runAvg speedWind from/ knotsBaromVisibWave heightAir tempDewpointWater temp
2015-Jan-31 12:28N 52°21' W 005°32'101 8.4
2015-Jan-31 00:22N 54°00' W 006°03'19310.7
2015-Jan-30 06:16N 51°30' W 002°42'2713.2
2015-Jan-30 04:11N 51°22' W 003°24'711.6
2015-Jan-30 03:33N 51°23' W 003°12'10 9.8
2015-Jan-30 02:33N 51°27' W 002°58'1010.2
2015-Jan-30 01:33N 51°30' W 002°43'0 0.3
2015-Jan-30 00:33N 51°30' W 002°42'0 0.0
2015-Jan-29 23:31N 51°30' W 002°42'0 0.0
2015-Jan-29 22:31N 51°30' W 002°42'0 0.0
2015-Jan-29 21:31N 51°30' W 002°42'0 0.0
2015-Jan-29 20:31N 51°30' W 002°42'0 0.0
2015-Jan-29 19:31N 51°30' W 002°42'0 0.0
2015-Jan-29 18:31N 51°30' W 002°42'0 0.0
2015-Jan-29 17:31N 51°30' W 002°42'0 0.0
2015-Jan-29 16:31N 51°30' W 002°42'0 0.0
2015-Jan-29 15:31N 51°30' W 002°42'0 0.0
2015-Jan-29 14:31N 51°30' W 002°42'0 0.0
2015-Jan-29 13:31N 51°30' W 002°42'0 0.0
2015-Jan-29 12:31N 51°30' W 002°42'0 0.0
2015-Jan-29 11:31N 51°30' W 002°42'0 0.0
2015-Jan-29 10:31N 51°30' W 002°42'0 0.0
2015-Jan-29 09:31N 51°30' W 002°42'0 0.0
2015-Jan-29 08:31N 51°30' W 002°42'0 0.0
2015-Jan-29 07:31N 51°30' W 002°42'0 0.0
2015-Jan-29 06:31N 51°30' W 002°42'0 0.0
2015-Jan-29 05:31N 51°30' W 002°42'0 0.0
2015-Jan-29 04:31N 51°30' W 002°42'0 0.0
2015-Jan-29 03:32N 51°30' W 002°42'1 0.9
2015-Jan-29 02:34N 51°30' W 002°44'1111.4
2015-Jan-29 01:33N 51°26' W 003°01'1212.4
2015-Jan-29 00:33N 51°21' W 003°19'96 6.4
2015-Jan-28 09:27N 52°11' W 005°32'93 2.7
2015-Jan-26 23:26N 51°22' W 003°23'1213.1
2015-Jan-26 22:32N 51°24' W 003°05'1111.7
2015-Jan-26 21:34N 51°30' W 002°48'4 3.9
2015-Jan-26 20:34N 51°30' W 002°42'0 0.0
2015-Jan-26 19:32N 51°30' W 002°42'0 0.0
2015-Jan-26 18:32N 51°30' W 002°42'0 0.0
2015-Jan-26 17:32N 51°30' W 002°42'0 0.0
2015-Jan-26 16:32N 51°30' W 002°42'0 0.0
2015-Jan-26 15:32N 51°30' W 002°42'0 0.0
2015-Jan-26 14:32N 51°30' W 002°42'0 0.0
2015-Jan-26 13:32N 51°30' W 002°42'0 0.0
2015-Jan-26 12:32N 51°30' W 002°42'0 0.0
2015-Jan-26 11:32N 51°30' W 002°42'0 0.0
2015-Jan-26 10:32N 51°30' W 002°42'0 0.0
2015-Jan-26 09:32N 51°30' W 002°42'0 0.0
2015-Jan-26 08:32N 51°30' W 002°42'0 0.0
2015-Jan-26 07:32N 51°30' W 002°42'0 0.0
2015-Jan-26 06:32N 51°30' W 002°42'0 0.0
2015-Jan-26 05:32N 51°30' W 002°42'0 0.0
2015-Jan-26 04:32N 51°30' W 002°42'0 0.0
2015-Jan-26 03:32N 51°30' W 002°42'0 0.0
2015-Jan-26 02:32N 51°30' W 002°42'0 0.0
2015-Jan-26 01:32N 51°30' W 002°42'0 0.0
2015-Jan-26 00:32N 51°30' W 002°42'0 0.0
2015-Jan-25 23:32N 51°30' W 002°42'0 0.0
2015-Jan-25 22:32N 51°30' W 002°42'0 0.0
2015-Jan-25 21:32N 51°30' W 002°42'0 0.0
2015-Jan-25 20:32N 51°30' W 002°42'0 0.0
2015-Jan-25 19:32N 51°30' W 002°42'0 0.0
2015-Jan-25 18:32N 51°30' W 002°42'0 0.0
2015-Jan-25 17:32N 51°30' W 002°42'0 0.0
2015-Jan-25 16:32N 51°30' W 002°42'0 0.0
2015-Jan-25 15:32N 51°30' W 002°42'0 0.0
2015-Jan-25 14:32N 51°30' W 002°42'0 0.0
2015-Jan-25 13:32N 51°30' W 002°42'0 0.0
2015-Jan-25 12:32N 51°30' W 002°42'0 0.0
2015-Jan-25 11:32N 51°30' W 002°42'0 0.0
2015-Jan-25 10:32N 51°30' W 002°42'0 0.0
2015-Jan-25 09:32N 51°30' W 002°42'0 0.0
2015-Jan-25 08:32N 51°30' W 002°42'0 0.0
2015-Jan-25 07:32N 51°30' W 002°42'0 0.0
2015-Jan-25 06:32N 51°30' W 002°42'0 0.0
2015-Jan-25 05:32N 51°30' W 002°42'0 0.0
2015-Jan-25 04:32N 51°30' W 002°42'0 0.0
2015-Jan-25 03:32N 51°30' W 002°42'0 0.0
2015-Jan-25 02:32N 51°30' W 002°42'0 0.0
2015-Jan-25 01:32N 51°30' W 002°42'0 0.0
2015-Jan-25 00:32N 51°30' W 002°42'0 0.0
2015-Jan-24 23:32N 51°30' W 002°42'0 0.0
2015-Jan-24 22:32N 51°30' W 002°42'0 0.5
2015-Jan-24 21:33N 51°30' W 002°43'7 7.0
2015-Jan-24 20:34N 51°28' W 002°54'1515.0
2015-Jan-24 19:33N 51°21' W 003°15'95 8.4
2015-Jan-24 08:17N 52°06' W 005°30'810.3
2015-Jan-24 07:28N 52°14' W 005°31'110 4.2
2015-Jan-23 05:23N 54°02' W 006°08'18910.4
2015-Jan-22 11:17N 51°22' W 003°23'1216.6
2015-Jan-22 10:32N 51°25' W 003°04'1414.6
2015-Jan-22 09:33N 51°30' W 002°43'0 0.3
2015-Jan-22 08:33N 51°30' W 002°42'0 0.0
2015-Jan-22 07:32N 51°30' W 002°42'0 0.0
2015-Jan-22 06:32N 51°30' W 002°42'0 0.0
2015-Jan-22 05:32N 51°30' W 002°42'0 0.0
2015-Jan-22 04:32N 51°30' W 002°42'0 0.0
2015-Jan-22 03:33N 51°30' W 002°42'0 0.0
2015-Jan-22 02:33N 51°30' W 002°42'0 0.0
2015-Jan-22 01:32N 51°30' W 002°42'0 0.0
2015-Jan-22 00:32N 51°30' W 002°42'0 0.0
2015-Jan-21 23:32N 51°30' W 002°42'0 0.0
2015-Jan-21 22:50N 51°30' W 002°42'0 0.0
2015-Jan-21 22:44N 51°30' W 002°42'0 0.1
2015-Jan-21 22:32N 51°30' W 002°42'0 0.0
2015-Jan-21 21:32N 51°30' W 002°42'0 0.0
2015-Jan-21 20:32N 51°30' W 002°42'0 0.0
2015-Jan-21 19:32N 51°30' W 002°42'0 0.0
2015-Jan-21 18:32N 51°30' W 002°42'0 0.0
2015-Jan-21 17:32N 51°30' W 002°42'0 0.0
2015-Jan-21 16:32N 51°30' W 002°42'0 0.0
2015-Jan-21 15:32N 51°30' W 002°42'0 0.0
2015-Jan-21 14:32N 51°30' W 002°42'0 0.0
2015-Jan-21 13:32N 51°30' W 002°42'0 0.0
2015-Jan-21 12:32N 51°30' W 002°42'  
Track history (hours):
 
Tides and Currents Weather Stations Pressure Air Temp Water Temp Dewpoint Dewpoint Depression Visibility Wind Speed Wind Dir Waves Ship Positions

Vanquish

Last reported at 2015-Jan-31 12:28 UTC. Time now 2015-Jan-31 13:11 UTC.
Position N 52°21' W 005°32'.

MMSI: 246138952.

Date/timePositionNaut miles runAvg speedWind from/ knotsBaromVisibWave heightAir tempDewpointWater temp
2015-Jan-31 12:28N 52°21' W 005°32'101 8.4
2015-Jan-31 00:22N 54°00' W 006°03'19310.7
2015-Jan-30 06:16N 51°30' W 002°42'2713.2
2015-Jan-30 04:11N 51°22' W 003°24'711.6
2015-Jan-30 03:33N 51°23' W 003°12'10 9.8
2015-Jan-30 02:33N 51°27' W 002°58'1010.2
2015-Jan-30 01:33N 51°30' W 002°43'0 0.3
2015-Jan-30 00:33N 51°30' W 002°42'0 0.0
2015-Jan-29 23:31N 51°30' W 002°42'0 0.0
2015-Jan-29 22:31N 51°30' W 002°42'0 0.0
2015-Jan-29 21:31N 51°30' W 002°42'0 0.0
2015-Jan-29 20:31N 51°30' W 002°42'0 0.0
2015-Jan-29 19:31N 51°30' W 002°42'0 0.0
2015-Jan-29 18:31N 51°30' W 002°42'0 0.0
2015-Jan-29 17:31N 51°30' W 002°42'0 0.0
2015-Jan-29 16:31N 51°30' W 002°42'0 0.0
2015-Jan-29 15:31N 51°30' W 002°42'0 0.0
2015-Jan-29 14:31N 51°30' W 002°42'0 0.0
2015-Jan-29 13:31N 51°30' W 002°42'0 0.0
2015-Jan-29 12:31N 51°30' W 002°42'0 0.0
2015-Jan-29 11:31N 51°30' W 002°42'0 0.0
2015-Jan-29 10:31N 51°30' W 002°42'0 0.0
2015-Jan-29 09:31N 51°30' W 002°42'0 0.0
2015-Jan-29 08:31N 51°30' W 002°42'0 0.0
2015-Jan-29 07:31N 51°30' W 002°42'0 0.0
2015-Jan-29 06:31N 51°30' W 002°42'0 0.0
2015-Jan-29 05:31N 51°30' W 002°42'0 0.0
2015-Jan-29 04:31N 51°30' W 002°42'0 0.0
2015-Jan-29 03:32N 51°30' W 002°42'1 0.9
2015-Jan-29 02:34N 51°30' W 002°44'1111.4
2015-Jan-29 01:33N 51°26' W 003°01'1212.4
2015-Jan-29 00:33N 51°21' W 003°19'96 6.4
2015-Jan-28 09:27N 52°11' W 005°32'93 2.7
2015-Jan-26 23:26N 51°22' W 003°23'1213.1
2015-Jan-26 22:32N 51°24' W 003°05'1111.7
2015-Jan-26 21:34N 51°30' W 002°48'4 3.9
2015-Jan-26 20:34N 51°30' W 002°42'0 0.0
2015-Jan-26 19:32N 51°30' W 002°42'0 0.0
2015-Jan-26 18:32N 51°30' W 002°42'0 0.0
2015-Jan-26 17:32N 51°30' W 002°42'0 0.0
2015-Jan-26 16:32N 51°30' W 002°42'0 0.0
2015-Jan-26 15:32N 51°30' W 002°42'0 0.0
2015-Jan-26 14:32N 51°30' W 002°42'0 0.0
2015-Jan-26 13:32N 51°30' W 002°42'0 0.0
2015-Jan-26 12:32N 51°30' W 002°42'0 0.0
2015-Jan-26 11:32N 51°30' W 002°42'0 0.0
2015-Jan-26 10:32N 51°30' W 002°42'0 0.0
2015-Jan-26 09:32N 51°30' W 002°42'0 0.0
2015-Jan-26 08:32N 51°30' W 002°42'0 0.0
2015-Jan-26 07:32N 51°30' W 002°42'0 0.0
2015-Jan-26 06:32N 51°30' W 002°42'0 0.0
2015-Jan-26 05:32N 51°30' W 002°42'0 0.0
2015-Jan-26 04:32N 51°30' W 002°42'0 0.0
2015-Jan-26 03:32N 51°30' W 002°42'0 0.0
2015-Jan-26 02:32N 51°30' W 002°42'0 0.0
2015-Jan-26 01:32N 51°30' W 002°42'0 0.0
2015-Jan-26 00:32N 51°30' W 002°42'0 0.0
2015-Jan-25 23:32N 51°30' W 002°42'0 0.0
2015-Jan-25 22:32N 51°30' W 002°42'0 0.0
2015-Jan-25 21:32N 51°30' W 002°42'0 0.0
2015-Jan-25 20:32N 51°30' W 002°42'0 0.0
2015-Jan-25 19:32N 51°30' W 002°42'0 0.0
2015-Jan-25 18:32N 51°30' W 002°42'0 0.0
2015-Jan-25 17:32N 51°30' W 002°42'0 0.0
2015-Jan-25 16:32N 51°30' W 002°42'0 0.0
2015-Jan-25 15:32N 51°30' W 002°42'0 0.0
2015-Jan-25 14:32N 51°30' W 002°42'0 0.0
2015-Jan-25 13:32N 51°30' W 002°42'0 0.0
2015-Jan-25 12:32N 51°30' W 002°42'0 0.0
2015-Jan-25 11:32N 51°30' W 002°42'0 0.0
2015-Jan-25 10:32N 51°30' W 002°42'0 0.0
2015-Jan-25 09:32N 51°30' W 002°42'0 0.0
2015-Jan-25 08:32N 51°30' W 002°42'0 0.0
2015-Jan-25 07:32N 51°30' W 002°42'0 0.0
2015-Jan-25 06:32N 51°30' W 002°42'0 0.0
2015-Jan-25 05:32N 51°30' W 002°42'0 0.0
2015-Jan-25 04:32N 51°30' W 002°42'0 0.0
2015-Jan-25 03:32N 51°30' W 002°42'0 0.0
2015-Jan-25 02:32N 51°30' W 002°42'0 0.0
2015-Jan-25 01:32N 51°30' W 002°42'0 0.0
2015-Jan-25 00:32N 51°30' W 002°42'0 0.0
2015-Jan-24 23:32N 51°30' W 002°42'0 0.0
2015-Jan-24 22:32N 51°30' W 002°42'0 0.5
2015-Jan-24 21:33N 51°30' W 002°43'7 7.0
2015-Jan-24 20:34N 51°28' W 002°54'1515.0
2015-Jan-24 19:33N 51°21' W 003°15'95 8.4
2015-Jan-24 08:17N 52°06' W 005°30'810.3
2015-Jan-24 07:28N 52°14' W 005°31'110 4.2
2015-Jan-23 05:23N 54°02' W 006°08'18910.4
2015-Jan-22 11:17N 51°22' W 003°23'1216.6
2015-Jan-22 10:32N 51°25' W 003°04'1414.6
2015-Jan-22 09:33N 51°30' W 002°43'0 0.3
2015-Jan-22 08:33N 51°30' W 002°42'0 0.0
2015-Jan-22 07:32N 51°30' W 002°42'0 0.0
2015-Jan-22 06:32N 51°30' W 002°42'0 0.0
2015-Jan-22 05:32N 51°30' W 002°42'0 0.0
2015-Jan-22 04:32N 51°30' W 002°42'0 0.0
2015-Jan-22 03:33N 51°30' W 002°42'0 0.0
2015-Jan-22 02:33N 51°30' W 002°42'0 0.0
2015-Jan-22 01:32N 51°30' W 002°42'0 0.0
2015-Jan-22 00:32N 51°30' W 002°42'0 0.0
2015-Jan-21 23:32N 51°30' W 002°42'0 0.0
2015-Jan-21 22:50N 51°30' W 002°42'0 0.0
2015-Jan-21 22:44N 51°30' W 002°42'0 0.1
2015-Jan-21 22:32N 51°30' W 002°42'0 0.0
2015-Jan-21 21:32N 51°30' W 002°42'0 0.0
2015-Jan-21 20:32N 51°30' W 002°42'0 0.0
2015-Jan-21 19:32N 51°30' W 002°42'0 0.0
2015-Jan-21 18:32N 51°30' W 002°42'0 0.0
2015-Jan-21 17:32N 51°30' W 002°42'0 0.0
2015-Jan-21 16:32N 51°30' W 002°42'0 0.0
2015-Jan-21 15:32N 51°30' W 002°42'0 0.0
2015-Jan-21 14:32N 51°30' W 002°42'0 0.0
2015-Jan-21 13:32N 51°30' W 002°42'0 0.0
2015-Jan-21 12:32N 51°30' W 002°42'  

Dump ship's entire track history